Time;durP1;ratioP1;P1;durP2;ratioP2;P2;SDS_P1;SDS_P2;PMS_P1;PMS_P2;Temp;Humidity;BMP_temperature;BMP_pressure;BME280_temperature;BME280_humidity;BME280_pressure;Samples;Min_cycle;Max_cycle;Signal;HPM_P1;HPM_P2
2021/10/07 00:01:52;;;;;;;6.73;2.00;;;;;;;3.76;60.40;101478.56;1763609;78;20977;-55
2021/10/07 00:04:18;;;;;;;6.23;1.90;;;;;;;3.73;60.48;101479.00;1741698;81;20973;-55
2021/10/07 00:06:45;;;;;;;3.00;1.13;;;;;;;3.71;60.52;101484.31;1743000;81;20949;-55
2021/10/07 00:09:11;;;;;;;3.33;1.50;;;;;;;3.69;60.56;101487.39;1737646;80;21127;-55
2021/10/07 00:11:38;;;;;;;4.93;1.80;;;;;;;3.68;60.57;101484.27;1733299;81;21339;-55
2021/10/07 00:14:05;;;;;;;6.60;2.27;;;;;;;3.67;60.64;101480.27;1732235;81;21370;-55
2021/10/07 00:16:32;;;;;;;7.63;2.30;;;;;;;3.65;60.69;101478.06;1738731;79;21077;-55
2021/10/07 00:18:59;;;;;;;7.63;2.43;;;;;;;3.63;60.73;101476.70;1739040;81;21057;-55
2021/10/07 00:21:25;;;;;;;5.73;2.13;;;;;;;3.62;60.75;101481.58;1735061;80;23349;-55
2021/10/07 00:24:11;;;;;;;5.00;1.90;;;;;;;3.61;60.70;101483.79;1740238;81;21324;-55
2021/10/07 00:26:41;;;;;;;11.73;2.20;;;;;;;3.60;60.71;101482.00;1736082;79;21514;-55
2021/10/07 00:31:47;;;;;;;5.23;1.37;;;;;;;3.59;60.76;101495.30;1737921;81;21140;-55
2021/10/07 00:34:22;;;;;;;6.70;1.73;;;;;;;3.56;60.77;101490.86;1736759;81;21359;-55
2021/10/07 00:39:09;;;;;;;5.53;1.40;;;;;;;3.53;60.85;101491.27;1735640;81;21605;-55
2021/10/07 00:41:41;;;;;;;3.97;1.60;;;;;;;3.51;60.88;101489.91;1743062;81;22152;-55
2021/10/07 00:44:09;;;;;;;3.07;1.77;;;;;;;3.48;60.91;101493.91;1737885;81;20991;-55
2021/10/07 00:46:58;;;;;;;4.30;1.83;;;;;;;3.46;60.95;101491.66;1736364;81;21171;-55
2021/10/07 00:49:23;;;;;;;3.77;1.53;;;;;;;3.44;60.97;101493.41;1737655;81;20966;-54
2021/10/07 00:51:50;;;;;;;3.97;1.80;;;;;;;3.42;60.99;101496.05;1734347;80;21278;-55
2021/10/07 00:54:19;;;;;;;4.17;1.63;;;;;;;3.42;61.03;101499.16;1736918;81;21479;-54
2021/10/07 00:56:45;;;;;;;4.80;1.90;;;;;;;3.40;61.02;101502.27;1737469;81;21061;-55
2021/10/07 00:59:11;;;;;;;8.47;1.83;;;;;;;3.39;61.06;101498.71;1735808;81;21074;-55
2021/10/07 01:01:38;;;;;;;10.37;2.17;;;;;;;3.39;61.09;101509.80;1734618;81;21104;-55
2021/10/07 01:04:05;;;;;;;4.97;1.93;;;;;;;3.38;61.13;101510.67;1735207;81;21096;-54
2021/10/07 01:06:33;;;;;;;6.90;2.30;;;;;;;3.35;61.14;101503.98;1732760;80;21133;-55
2021/10/07 01:09:00;;;;;;;9.33;2.07;;;;;;;3.34;61.20;101512.84;1737449;81;21120;-54
2021/10/07 01:11:27;;;;;;;6.17;3.13;;;;;;;3.32;61.18;101502.17;1737465;81;22415;-54
2021/10/07 01:13:53;;;;;;;6.33;3.30;;;;;;;3.31;61.18;101510.17;1734856;81;21100;-55
2021/10/07 01:16:19;;;;;;;16.17;2.97;;;;;;;3.30;61.16;101511.05;1732886;81;21101;-55
2021/10/07 01:18:46;;;;;;;6.07;2.47;;;;;;;3.29;61.16;101515.47;1736634;81;21021;-55
2021/10/07 01:21:13;;;;;;;8.60;2.50;;;;;;;3.27;61.20;101517.66;1730286;80;21308;-55
2021/10/07 01:23:41;;;;;;;10.97;3.43;;;;;;;3.25;61.22;101515.41;1735345;80;21117;-55
2021/10/07 01:26:10;;;;;;;17.40;3.63;;;;;;;3.21;61.28;101515.84;1740906;79;20938;-55
2021/10/07 01:28:41;;;;;;;8.40;2.80;;;;;;;3.18;61.31;101518.45;1739558;81;21208;-55
2021/10/07 01:31:08;;;;;;;13.33;3.07;;;;;;;3.16;61.36;101519.31;1740124;79;21656;-55
2021/10/07 01:33:34;;;;;;;8.23;2.37;;;;;;;3.14;61.45;101523.75;1744703;81;22174;-55
2021/10/07 01:36:01;;;;;;;5.47;2.33;;;;;;;3.10;61.44;101525.91;1735413;81;21097;-55
2021/10/07 01:38:27;;;;;;;8.03;3.50;;;;;;;3.07;61.45;101531.19;1740773;79;20871;-55
2021/10/07 01:40:54;;;;;;;5.60;2.27;;;;;;;3.03;61.50;101533.84;1742698;81;20921;-55
2021/10/07 01:43:21;;;;;;;6.63;2.67;;;;;;;3.03;61.55;101536.94;1737106;81;21511;-55
2021/10/07 01:45:48;;;;;;;10.50;2.10;;;;;;;3.00;61.51;101538.22;1733123;81;21466;-55
2021/10/07 01:48:14;;;;;;;4.53;1.63;;;;;;;2.98;61.57;101537.30;1732962;79;21875;-55
2021/10/07 01:50:40;;;;;;;5.67;2.47;;;;;;;2.95;61.62;101533.30;1725733;81;21419;-55
2021/10/07 01:53:07;;;;;;;2.60;1.50;;;;;;;2.94;61.63;101537.73;1709084;82;21318;-55
2021/10/07 01:55:33;;;;;;;4.83;1.70;;;;;;;2.91;61.63;101541.67;1707820;82;21123;-55
2021/10/07 01:57:59;;;;;;;8.10;3.47;;;;;;;2.90;61.70;101541.21;1709938;82;21064;-55
2021/10/07 02:00:26;;;;;;;8.07;2.40;;;;;;;2.88;61.70;101544.75;1710817;81;21086;-55
2021/10/07 02:02:52;;;;;;;3.07;1.50;;;;;;;2.85;61.69;101546.94;1708765;82;21479;-55
2021/10/07 02:05:18;;;;;;;5.50;1.33;;;;;;;2.85;61.78;101546.94;1706816;81;21048;-55
2021/10/07 02:07:45;;;;;;;4.43;1.40;;;;;;;2.85;61.77;101546.94;1712566;82;21116;-55
2021/10/07 02:10:15;;;;;;;4.80;1.27;;;;;;;2.84;61.82;101550.46;1708373;82;21064;-55
2021/10/07 02:12:45;;;;;;;7.73;1.40;;;;;;;2.83;61.83;101550.00;1710683;82;21481;-55
2021/10/07 02:15:11;;;;;;;4.93;1.20;;;;;;;2.82;61.86;101556.19;1710906;81;21554;-55
2021/10/07 02:17:38;;;;;;;5.13;1.10;;;;;;;2.82;61.85;101556.19;1708896;81;21838;-55
2021/10/07 02:20:07;;;;;;;4.20;1.20;;;;;;;2.80;61.84;101561.06;1709371;82;21546;-55
2021/10/07 02:22:33;;;;;;;2.67;1.10;;;;;;;2.80;61.85;101549.98;1711526;82;21481;-55
2021/10/07 02:25:00;;;;;;;2.13;0.93;;;;;;;2.78;61.82;101554.39;1709892;82;21066;-54
2021/10/07 02:27:27;;;;;;;5.63;1.00;;;;;;;2.76;61.82;101550.81;1706962;82;22492;-56
2021/10/07 02:29:54;;;;;;;5.03;1.30;;;;;;;2.75;61.82;101558.77;1711837;82;21641;-55
2021/10/07 02:32:20;;;;;;;2.67;1.40;;;;;;;2.75;61.79;101562.75;1708631;82;21521;-55
2021/10/07 02:34:46;;;;;;;4.23;0.90;;;;;;;2.72;61.80;101556.98;1710329;82;21653;-55
2021/10/07 02:37:13;;;;;;;3.60;1.00;;;;;;;2.72;61.81;101552.10;1714744;82;21478;-55
2021/10/07 02:39:39;;;;;;;1.73;1.00;;;;;;;2.71;61.82;101556.52;1710066;82;21974;-55
2021/10/07 02:42:05;;;;;;;6.73;1.43;;;;;;;2.71;61.83;101550.31;1715762;82;21400;-54
2021/10/07 02:44:32;;;;;;;4.67;1.27;;;;;;;2.70;61.82;101552.52;1712745;82;21396;-54
2021/10/07 02:46:58;;;;;;;4.63;1.30;;;;;;;2.67;61.77;101557.34;1734474;80;21547;-55
2021/10/07 02:49:25;;;;;;;2.50;1.00;;;;;;;2.65;61.79;101559.98;1716870;81;21445;-55
2021/10/07 02:51:52;;;;;;;7.07;1.00;;;;;;;2.63;61.80;101559.09;1753376;78;21796;-54
2021/10/07 02:54:18;;;;;;;4.47;1.20;;;;;;;2.62;61.82;101559.96;1763898;78;21617;-55
2021/10/07 02:56:44;;;;;;;3.60;0.97;;;;;;;2.63;61.84;101567.50;1760112;78;21484;-55
2021/10/07 02:59:12;;;;;;;2.90;1.37;;;;;;;2.61;61.87;101567.48;1747187;80;21499;-54
2021/10/07 03:01:39;;;;;;;2.67;0.90;;;;;;;2.60;61.89;101566.13;1747573;80;21803;-54
2021/10/07 03:04:05;;;;;;;1.70;0.97;;;;;;;2.60;61.89;101571.44;1741497;79;21319;-55
2021/10/07 03:06:31;;;;;;;7.17;0.90;;;;;;;2.57;61.92;101566.97;1746852;81;21088;-55
2021/10/07 03:09:00;;;;;;;3.30;1.23;;;;;;;2.58;61.96;101571.41;1742174;81;22572;-55
2021/10/07 03:11:26;;;;;;;3.10;0.93;;;;;;;2.56;61.94;101572.25;1722083;81;21092;-55
2021/10/07 03:13:52;;;;;;;3.70;0.90;;;;;;;2.55;61.97;101576.67;1741302;80;21116;-55
2021/10/07 03:16:19;;;;;;;4.90;0.80;;;;;;;2.55;61.97;101575.82;1738786;81;21113;-55
2021/10/07 03:18:45;;;;;;;2.90;0.90;;;;;;;2.54;61.97;101576.25;1739403;81;21085;-55
2021/10/07 03:21:11;;;;;;;1.33;0.80;;;;;;;2.56;62.01;101577.58;1741401;80;20984;-55
2021/10/07 03:23:38;;;;;;;3.30;1.00;;;;;;;2.57;62.02;101574.05;1738498;81;20942;-55
2021/10/07 03:26:04;;;;;;;3.03;0.90;;;;;;;2.56;62.02;101572.25;1742871;80;21661;-55
2021/10/07 03:28:31;;;;;;;2.50;0.90;;;;;;;2.54;62.02;101576.25;1741052;81;21704;-55
2021/10/07 03:30:58;;;;;;;3.90;1.10;;;;;;;2.52;62.07;101571.34;1739430;80;21630;-55
2021/10/07 03:33:24;;;;;;;2.97;0.90;;;;;;;2.52;62.10;101573.11;1727460;80;21756;-54
2021/10/07 03:35:51;;;;;;;4.03;1.33;;;;;;;2.50;62.10;101583.71;1721840;81;21057;-55
2021/10/07 03:38:17;;;;;;;2.33;1.00;;;;;;;2.49;62.12;101585.91;1758029;79;21126;-55
2021/10/07 03:40:43;;;;;;;3.57;0.80;;;;;;;2.47;62.15;101584.98;1739703;80;21136;-55
2021/10/07 03:43:09;;;;;;;2.80;1.10;;;;;;;2.48;62.17;101588.55;1734129;80;21074;-55
2021/10/07 03:45:37;;;;;;;2.73;1.10;;;;;;;2.47;62.21;101590.73;1721903;81;21509;-54
2021/10/07 03:48:04;;;;;;;7.17;1.10;;;;;;;2.46;62.19;101599.61;1755168;79;20986;-55
2021/10/07 03:50:32;;;;;;;2.93;0.97;;;;;;;2.45;62.27;101593.84;1755911;78;21146;-55
2021/10/07 03:53:00;;;;;;;3.20;0.80;;;;;;;2.46;62.26;101594.30;1756952;79;21698;-55
2021/10/07 03:55:26;;;;;;;2.77;0.90;;;;;;;2.45;62.28;101593.41;1726490;81;21037;-55
2021/10/07 03:57:52;;;;;;;5.10;1.00;;;;;;;2.45;62.31;101590.75;1757531;78;21057;-55
2021/10/07 04:00:19;;;;;;;2.47;1.10;;;;;;;2.43;62.32;101583.61;1742289;81;21474;-55
2021/10/07 04:02:45;;;;;;;1.60;0.97;;;;;;;2.41;62.36;101585.34;1739219;80;21445;-55
2021/10/07 04:05:11;;;;;;;6.83;1.17;;;;;;;2.38;62.40;101586.22;1761554;79;21118;-55
2021/10/07 04:07:39;;;;;;;6.63;1.07;;;;;;;2.36;62.47;101588.39;1735705;80;21077;-54
2021/10/07 04:10:08;;;;;;;4.53;0.90;;;;;;;2.35;62.53;101583.51;1769903;79;21038;-54
2021/10/07 04:12:34;;;;;;;1.90;1.00;;;;;;;2.35;62.52;101583.94;1727733;80;20936;-54
2021/10/07 04:15:01;;;;;;;3.20;0.80;;;;;;;2.33;62.54;101586.57;1755062;79;22199;-55
2021/10/07 04:17:27;;;;;;;3.93;0.90;;;;;;;2.32;62.61;101587.88;1737434;81;21399;-54
2021/10/07 04:19:53;;;;;;;23.97;1.93;;;;;;;2.31;62.64;101590.97;1758674;80;21336;-55
2021/10/07 04:22:20;;;;;;;5.20;1.10;;;;;;;2.31;62.66;101589.63;1728130;81;21073;-55
2021/10/07 04:24:46;;;;;;;4.80;1.00;;;;;;;2.31;62.69;101590.07;1756270;79;21408;-55
2021/10/07 04:27:14;;;;;;;4.63;1.00;;;;;;;2.32;62.73;101599.83;1760766;79;21532;-55
2021/10/07 04:29:43;;;;;;;3.40;1.37;;;;;;;2.31;62.76;101603.36;1736597;81;21096;-55
2021/10/07 04:32:11;;;;;;;3.00;0.90;;;;;;;2.31;62.79;101598.94;1729693;80;21444;-54
2021/10/07 04:34:37;;;;;;;2.87;1.00;;;;;;;2.30;62.85;101601.13;1737442;80;21427;-55
2021/10/07 04:37:04;;;;;;;5.83;1.30;;;;;;;2.30;62.94;101601.60;1763797;80;21291;-55
2021/10/07 04:39:31;;;;;;;3.57;1.30;;;;;;;2.29;62.97;101611.33;1759199;79;21140;-55
2021/10/07 04:41:57;;;;;;;2.00;0.97;;;;;;;2.28;62.95;101613.53;1731560;81;21049;-55
2021/10/07 04:44:24;;;;;;;4.57;1.10;;;;;;;2.28;63.03;101610.88;1727188;81;21032;-55
2021/10/07 04:46:50;;;;;;;2.57;1.10;;;;;;;2.30;63.05;101609.57;1762749;79;21136;-55
2021/10/07 04:49:17;;;;;;;7.87;0.97;;;;;;;2.33;63.06;101614.91;1734458;81;21057;-55
2021/10/07 04:51:43;;;;;;;5.13;1.00;;;;;;;2.33;63.06;101610.48;1732424;81;21155;-55
2021/10/07 04:54:09;;;;;;;4.00;0.87;;;;;;;2.33;63.12;101605.61;1735570;80;21076;-55
2021/10/07 04:56:37;;;;;;;4.20;1.30;;;;;;;2.37;63.12;101605.69;1740407;81;21057;-55
2021/10/07 04:59:03;;;;;;;6.33;1.10;;;;;;;2.41;63.08;101603.95;1737509;81;21542;-55
2021/10/07 05:01:31;;;;;;;2.90;0.90;;;;;;;2.46;63.03;101610.25;1736454;81;21444;-55
2021/10/07 05:03:59;;;;;;;6.03;1.00;;;;;;;2.51;63.01;101615.18;1743135;81;21175;-56
2021/10/07 05:06:26;;;;;;;3.37;0.90;;;;;;;2.55;62.95;101615.70;1741546;81;20967;-55
2021/10/07 05:08:52;;;;;;;8.90;1.23;;;;;;;2.59;62.86;101622.39;1739045;79;21065;-56
2021/10/07 05:11:18;;;;;;;5.83;1.33;;;;;;;2.68;62.88;101625.61;1733065;81;21077;-55
2021/10/07 05:13:45;;;;;;;3.17;1.13;;;;;;;2.79;62.77;101617.34;1739412;81;22328;-55
2021/10/07 05:16:11;;;;;;;4.20;1.20;;;;;;;2.91;62.66;101615.25;1737521;81;21129;-55
2021/10/07 05:18:37;;;;;;;4.03;1.53;;;;;;;3.07;62.57;101615.00;1719831;79;21057;-56
2021/10/07 05:21:04;;;;;;;3.60;0.93;;;;;;;3.24;62.18;101613.42;1737310;81;20927;-55
2021/10/07 05:23:30;;;;;;;1.13;0.80;;;;;;;3.38;61.77;101612.72;1741903;81;20870;-56
2021/10/07 05:25:57;;;;;;;5.23;0.90;;;;;;;3.50;61.31;101615.03;1757857;78;20926;-54
2021/10/07 05:28:23;;;;;;;3.83;1.10;;;;;;;3.58;61.12;101612.89;1758356;79;21748;-55
2021/10/07 05:30:51;;;;;;;1.53;0.83;;;;;;;3.68;60.91;101616.54;1762866;79;21539;-54
2021/10/07 05:33:20;;;;;;;1.27;0.80;;;;;;;3.78;60.74;101629.07;1759164;79;20895;-55
2021/10/07 05:35:46;;;;;;;3.00;0.80;;;;;;;3.88;60.40;101620.29;1739586;80;20920;-54
2021/10/07 05:38:14;;;;;;;5.40;1.00;;;;;;;3.98;60.23;101618.16;1763375;78;20890;-55
2021/10/07 05:40:40;;;;;;;3.73;0.93;;;;;;;4.09;60.07;101621.78;1720808;81;21090;-54
2021/10/07 05:43:10;;;;;;;3.37;0.80;;;;;;;4.19;59.75;101622.30;1773221;78;20898;-55
2021/10/07 05:45:36;;;;;;;3.83;1.30;;;;;;;4.28;59.45;101621.92;1757662;79;20970;-54
2021/10/07 05:48:03;;;;;;;4.73;0.90;;;;;;;4.35;59.17;101632.63;1762366;79;20969;-57
2021/10/07 05:50:29;;;;;;;4.30;1.20;;;;;;;4.36;59.03;101623.76;1738245;80;21424;-54
2021/10/07 05:52:56;;;;;;;5.33;0.93;;;;;;;4.42;58.91;101629.12;1746106;80;21212;-55
2021/10/07 05:55:22;;;;;;;3.93;0.90;;;;;;;4.43;58.80;101631.34;1759245;78;20950;-55
2021/10/07 05:57:49;;;;;;;2.83;1.00;;;;;;;4.46;58.67;101628.71;1759073;80;21385;-55
2021/10/07 06:00:16;;;;;;;6.50;0.90;;;;;;;4.51;58.52;101632.28;1738913;80;20932;-55
2021/10/07 06:02:42;;;;;;;7.50;0.83;;;;;;;4.53;58.34;101636.75;1756422;79;21001;-54
2021/10/07 06:05:10;;;;;;;3.27;0.80;;;;;;;4.57;58.38;101639.02;1738140;80;21149;-55
2021/10/07 06:07:37;;;;;;;7.67;1.37;;;;;;;4.62;58.31;101638.59;1740083;81;21483;-54
2021/10/07 06:10:06;;;;;;;4.30;0.90;;;;;;;4.69;58.37;101639.51;1737611;80;21558;-55
2021/10/07 06:12:33;;;;;;;1.73;1.00;;;;;;;4.79;58.35;101634.68;1752057;79;21129;-54
2021/10/07 06:14:59;;;;;;;2.27;0.93;;;;;;;4.88;58.03;101637.39;1753866;79;21691;-55
2021/10/07 06:17:25;;;;;;;1.10;0.80;;;;;;;4.97;57.88;101637.44;1760853;79;21680;-55
2021/10/07 06:20:01;;;;;;;2.27;0.83;;;;;;;5.06;57.75;101635.25;1754407;79;21529;-54
2021/10/07 06:22:20;;;;;;;2.70;0.97;;;;;;;5.16;57.71;101640.64;1755629;79;21119;-55
2021/10/07 06:24:47;;;;;;;2.37;0.80;;;;;;;5.24;57.11;101639.33;1752628;79;21112;-55
2021/10/07 06:27:13;;;;;;;8.87;1.07;;;;;;;5.29;56.54;101636.22;1757893;79;21049;-54
2021/10/07 06:29:39;;;;;;;5.23;0.87;;;;;;;5.29;56.30;101634.44;1756074;79;22665;-54
2021/10/07 06:32:06;;;;;;;1.93;0.70;;;;;;;5.35;56.18;101639.38;1754942;79;21105;-56
2021/10/07 06:34:33;;;;;;;4.70;0.70;;;;;;;5.42;56.13;101643.84;1764054;79;21494;-54
2021/10/07 06:36:59;;;;;;;4.93;0.60;;;;;;;5.49;55.93;101640.29;1756436;79;21521;-54
2021/10/07 06:39:25;;;;;;;5.90;0.70;;;;;;;5.58;55.71;101646.99;1759066;79;22467;-55
2021/10/07 06:41:52;;;;;;;1.63;0.70;;;;;;;5.65;55.38;101648.78;1760960;79;21075;-54
2021/10/07 06:44:20;;;;;;;4.30;0.70;;;;;;;5.70;54.86;101646.55;1767178;79;21016;-54
2021/10/07 06:46:46;;;;;;;2.50;0.70;;;;;;;5.75;54.70;101647.02;1754317;79;21716;-54
2021/10/07 06:49:12;;;;;;;3.07;0.70;;;;;;;5.79;54.36;101645.67;1758097;79;21045;-56
2021/10/07 06:51:39;;;;;;;1.87;0.70;;;;;;;5.85;54.30;101650.16;1756697;79;21023;-54
2021/10/07 06:54:05;;;;;;;4.13;0.60;;;;;;;5.91;54.12;101651.08;1760055;78;23339;-54
2021/10/07 06:56:32;;;;;;;4.43;0.73;;;;;;;5.97;53.69;101652.41;1764818;78;21059;-55
2021/10/07 06:58:59;;;;;;;5.27;0.70;;;;;;;6.02;53.78;101641.30;1761644;78;21506;-55
2021/10/07 07:01:27;;;;;;;3.17;0.70;;;;;;;6.09;53.39;101651.54;1765681;78;21072;-55
2021/10/07 07:03:55;;;;;;;2.47;0.67;;;;;;;6.15;53.24;101651.53;1761598;78;21014;-56
2021/10/07 07:06:24;;;;;;;1.30;0.60;;;;;;;6.22;52.84;101657.31;1764594;78;21143;-55
2021/10/07 07:08:51;;;;;;;1.30;0.60;;;;;;;6.25;52.57;101655.98;1762478;78;20914;-56
2021/10/07 07:11:17;;;;;;;2.47;0.70;;;;;;;6.30;52.31;101651.52;1766588;78;20941;-55
2021/10/07 07:13:44;;;;;;;1.77;0.70;;;;;;;6.33;51.83;101648.84;1763532;78;20902;-55
2021/10/07 07:16:11;;;;;;;3.23;0.70;;;;;;;6.36;51.54;101645.29;1761938;78;21046;-55
2021/10/07 07:18:37;;;;;;;2.20;0.70;;;;;;;6.42;51.48;101653.30;1766677;78;21142;-55
2021/10/07 07:21:03;;;;;;;7.80;0.80;;;;;;;6.46;51.51;101645.73;1767061;78;21044;-54
2021/10/07 07:23:30;;;;;;;1.53;0.70;;;;;;;6.54;51.52;101648.39;1745905;80;21045;-54
2021/10/07 07:25:56;;;;;;;4.83;0.70;;;;;;;6.63;51.37;101655.06;1759404;78;21116;-54
2021/10/07 07:28:23;;;;;;;4.07;0.60;;;;;;;6.71;50.76;101652.81;1763489;78;21078;-55
2021/10/07 07:30:49;;;;;;;2.30;0.70;;;;;;;6.80;50.81;101656.77;1767524;78;21146;-53
2021/10/07 07:33:20;;;;;;;5.27;0.63;;;;;;;6.89;50.31;101655.86;1759854;78;21552;-54
2021/10/07 07:35:44;;;;;;;4.60;0.60;;;;;;;6.98;49.66;101655.83;1763053;78;20902;-55
2021/10/07 07:38:10;;;;;;;2.67;0.57;;;;;;;7.07;49.54;101656.25;1768705;78;21037;-53
2021/10/07 07:40:37;;;;;;;8.60;0.60;;;;;;;7.16;49.20;101658.89;1764148;78;21063;-54
2021/10/07 07:43:03;;;;;;;3.03;0.60;;;;;;;7.27;48.71;101666.89;1735948;81;22972;-55
2021/10/07 07:45:30;;;;;;;2.33;0.60;;;;;;;7.36;48.55;101662.38;1755608;78;21032;-54
2021/10/07 07:47:57;;;;;;;3.50;0.53;;;;;;;7.46;48.56;101668.59;1762169;78;20992;-54
2021/10/07 07:50:25;;;;;;;4.40;0.53;;;;;;;7.53;48.13;101663.19;1757467;79;21041;-55
2021/10/07 07:52:52;;;;;;;4.57;0.60;;;;;;;7.62;47.89;101675.64;1760249;78;21397;-55
2021/10/07 07:55:19;;;;;;;3.57;0.50;;;;;;;7.71;47.85;101670.68;1766770;78;21138;-55
2021/10/07 07:57:45;;;;;;;2.60;0.60;;;;;;;7.79;47.50;101667.05;1764134;78;21076;-55
2021/10/07 08:00:12;;;;;;;2.70;0.80;;;;;;;7.89;47.21;101663.41;1765739;78;21139;-55
2021/10/07 08:02:40;;;;;;;35.63;15.77;;;;;;;8.01;46.88;101666.44;1767935;78;20905;-55
2021/10/07 08:05:06;;;;;;;9.77;2.27;;;;;;;8.10;46.31;101656.98;1770330;78;21001;-54
2021/10/07 08:07:33;;;;;;;5.90;0.90;;;;;;;8.18;46.24;101661.83;1764086;78;21072;-55
2021/10/07 08:10:00;;;;;;;10.63;1.90;;;;;;;8.27;45.96;101657.73;1764252;78;22471;-55
2021/10/07 08:12:32;;;;;;;3.63;0.50;;;;;;;8.35;45.69;101651.88;1760393;78;21533;-54
2021/10/07 08:14:56;;;;;;;2.30;0.50;;;;;;;8.44;45.11;101656.27;1763333;78;21158;-55
2021/10/07 08:17:23;;;;;;;1.97;0.43;;;;;;;8.52;45.02;101655.74;1766049;78;21299;-55
2021/10/07 08:19:49;;;;;;;5.87;0.90;;;;;;;8.62;44.48;101656.55;1767328;78;21079;-55
2021/10/07 08:22:15;;;;;;;3.90;0.50;;;;;;;8.66;43.89;101645.78;1767804;78;20890;-54
2021/10/07 08:24:42;;;;;;;2.60;0.40;;;;;;;8.71;43.83;101643.03;1768315;78;20977;-55
2021/10/07 08:27:08;;;;;;;3.50;0.47;;;;;;;8.75;42.94;101639.42;1765111;78;20999;-54
2021/10/07 08:29:35;;;;;;;1.90;0.40;;;;;;;8.77;42.73;101634.90;1765608;78;20929;-55
2021/10/07 08:32:01;;;;;;;2.07;0.40;;;;;;;8.83;43.29;101633.97;1769912;78;21061;-54
2021/10/07 08:34:27;;;;;;;5.07;0.50;;;;;;;8.89;42.63;101629.86;1769213;78;21004;-54
2021/10/07 08:36:54;;;;;;;1.60;0.40;;;;;;;8.91;42.63;101630.28;1763821;78;20984;-54
2021/10/07 08:39:21;;;;;;;1.37;0.37;;;;;;;8.97;42.30;101624.83;1764780;78;21904;-54
2021/10/07 08:41:52;;;;;;;7.80;0.43;;;;;;;9.01;42.03;101631.96;1765791;78;21364;-54
2021/10/07 08:44:19;;;;;;;8.77;0.40;;;;;;;9.04;41.93;101624.30;1763201;78;21121;-55
2021/10/07 08:46:46;;;;;;;1.97;0.40;;;;;;;9.08;41.51;101619.34;1766291;78;20882;-55
2021/10/07 08:49:14;;;;;;;5.50;0.30;;;;;;;9.15;41.26;101622.83;1762892;78;21506;-55
2021/10/07 08:51:42;;;;;;;4.67;1.10;;;;;;;9.18;40.69;101614.73;1769352;78;20886;-55
2021/10/07 08:54:08;;;;;;;5.83;0.50;;;;;;;9.22;40.99;101610.63;1767901;78;20945;-54
2021/10/07 08:56:35;;;;;;;4.97;0.43;;;;;;;9.29;41.10;101609.63;1768587;78;20992;-55
2021/10/07 08:59:02;;;;;;;2.50;0.40;;;;;;;9.36;40.88;101609.09;1768052;78;20909;-55
2021/10/07 09:01:49;;;;;;;5.22;0.30;;;;;;;9.42;40.79;101613.95;1774216;78;21362;-55
2021/10/07 09:04:19;;;;;;;2.65;0.30;;;;;;;9.50;40.16;101608.46;1768628;78;20918;-56
2021/10/07 09:06:46;;;;;;;0.55;0.20;;;;;;;9.57;40.23;101603.42;1767287;78;20889;-55
2021/10/07 09:09:13;;;;;;;3.50;0.20;;;;;;;9.64;39.73;101609.14;1773083;78;21075;-55
2021/10/07 09:11:41;;;;;;;11.68;0.50;;;;;;;9.67;39.83;101603.72;1752345;79;20923;-56
2021/10/07 09:14:09;;;;;;;3.33;0.30;;;;;;;9.72;39.68;101591.53;1764837;78;21052;-55
2021/10/07 09:16:49;;;;;;;0.50;0.20;;;;;;;9.74;38.79;101587.92;1764119;78;21087;-55
2021/10/07 09:19:25;;;;;;;5.47;0.20;;;;;;;9.76;39.19;101599.55;1776580;78;21049;-55
2021/10/07 09:21:55;;;;;;;10.43;0.30;;;;;;;9.81;39.07;101601.70;1766109;78;21470;-55
2021/10/07 09:24:36;;;;;;;4.15;0.40;;;;;;;9.86;38.73;101598.95;1766652;78;20930;-55
2021/10/07 09:27:10;;;;;;;5.05;0.37;;;;;;;9.88;38.02;101603.37;1761881;78;21023;-55
2021/10/07 09:29:45;;;;;;;1.47;0.30;;;;;;;9.87;37.92;101602.05;1762208;78;21052;-56
2021/10/07 09:32:12;;;;;;;2.22;0.30;;;;;;;9.90;38.34;101602.45;1756240;78;22460;-55
2021/10/07 09:34:48;;;;;;;4.65;0.35;;;;;;;9.91;37.78;101597.06;1766458;78;21112;-55
2021/10/07 09:37:27;;;;;;;3.75;0.30;;;;;;;9.93;38.05;101600.63;1764734;78;22520;-56
2021/10/07 09:40:23;;;;;;;2.75;0.30;;;;;;;9.98;38.22;101598.73;1765576;78;21544;-56
2021/10/07 09:43:01;;;;;;;3.20;0.40;;;;;;;10.03;38.39;101604.95;1763058;78;21242;-55
2021/10/07 09:45:33;;;;;;;6.72;0.62;;;;;;;10.06;38.20;101606.22;1766672;78;21075;-54
2021/10/07 09:48:03;;;;;;;5.42;0.40;;;;;;;10.07;38.50;101608.45;1776331;78;23010;-55
2021/10/07 09:50:37;;;;;;;3.75;0.75;;;;;;;10.09;38.86;101603.48;1746485;80;20882;-54
2021/10/07 09:53:11;;;;;;;2.77;0.40;;;;;;;10.15;38.52;101598.45;1746985;80;20954;-55
2021/10/07 09:55:45;;;;;;;3.85;0.40;;;;;;;10.21;38.98;101599.71;1769236;78;21491;-56
2021/10/07 09:58:22;;;;;;;11.57;0.40;;;;;;;10.29;38.74;101587.49;1759943;78;21327;-55
2021/10/07 10:00:54;;;;;;;1.40;0.30;;;;;;;10.36;39.12;101589.16;1745571;80;22266;-56
2021/10/07 10:03:22;;;;;;;3.60;0.30;;;;;;;10.43;38.71;101581.39;1766339;80;21061;-56
2021/10/07 10:05:48;;;;;;;2.55;0.50;;;;;;;10.48;38.89;101577.68;1732113;80;21096;-55
2021/10/07 10:08:18;;;;;;;1.87;0.50;;;;;;;10.54;38.91;101583.43;1761436;78;20973;-56
2021/10/07 10:10:45;;;;;;;3.50;0.50;;;;;;;10.59;38.85;101577.02;1744199;80;20970;-56
2021/10/07 10:13:12;;;;;;;6.28;0.70;;;;;;;10.65;39.15;101575.12;1741081;80;21098;-55
2021/10/07 10:15:40;;;;;;;2.33;0.70;;;;;;;10.69;38.57;101577.73;1736088;80;21121;-56
2021/10/07 10:18:09;;;;;;;9.10;0.70;;;;;;;10.72;38.47;101577.66;1746015;80;21144;-56
2021/10/07 10:20:41;;;;;;;5.12;0.90;;;;;;;10.74;38.28;101561.02;1762352;79;21084;-56
2021/10/07 10:23:16;;;;;;;1.50;0.30;;;;;;;10.77;38.41;101559.62;1762178;80;21360;-57
2021/10/07 10:26:01;;;;;;;2.40;0.30;;;;;;;10.82;37.68;101555.47;1733361;80;21669;-57
2021/10/07 10:28:53;;;;;;;2.90;0.40;;;;;;;10.85;37.19;101549.56;1764638;78;21053;-56
2021/10/07 10:31:33;;;;;;;1.95;0.50;;;;;;;10.90;37.54;101550.34;1737650;80;20954;-56
2021/10/07 10:34:13;;;;;;;3.12;0.53;;;;;;;10.96;36.84;101542.16;1765472;78;21107;-56
2021/10/07 10:36:58;;;;;;;5.72;0.78;;;;;;;11.02;36.86;101538.89;1748958;80;21258;-56
2021/10/07 10:39:33;;;;;;;2.75;0.30;;;;;;;11.06;36.53;101536.56;1748485;80;21305;-56
2021/10/07 10:42:10;;;;;;;2.15;0.35;;;;;;;11.09;36.12;101534.67;1745124;79;21104;-56
2021/10/07 10:44:42;;;;;;;4.65;0.40;;;;;;;11.12;36.17;101539.13;1740096;81;21514;-56
2021/10/07 10:47:14;;;;;;;6.00;0.30;;;;;;;11.17;35.92;101525.95;1740437;81;21110;-56
2021/10/07 10:49:52;;;;;;;2.22;0.30;;;;;;;11.22;35.51;101533.50;1743903;81;21063;-56
2021/10/07 10:52:24;;;;;;;3.40;0.30;;;;;;;11.26;34.91;101528.90;1742317;81;21803;-56
2021/10/07 10:55:12;;;;;;;0.70;0.30;;;;;;;11.26;34.66;101532.48;1727313;81;20922;-57
2021/10/07 10:57:46;;;;;;;1.25;0.20;;;;;;;11.28;34.90;101525.26;1724447;82;21081;-56
2021/10/07 11:00:36;;;;;;;0.55;0.20;;;;;;;11.30;34.58;101523.88;1723102;82;21061;-56
2021/10/07 11:03:14;;;;;;;2.30;0.28;;;;;;;11.32;34.43;101524.70;1723711;82;21046;-55
2021/10/07 11:08:20;;;;;;;14.93;5.30;;;;;;;11.47;34.61;101512.70;1864074;75;23975;-56
2021/10/07 11:10:51;;;;;;;9.78;2.27;;;;;;;11.48;34.36;101514.48;1840325;76;20902;-56
2021/10/07 11:13:30;;;;;;;2.17;0.33;;;;;;;11.50;33.64;101526.97;1841904;76;22211;-57
2021/10/07 11:16:00;;;;;;;3.37;0.35;;;;;;;11.49;33.62;101520.27;1840556;76;20979;-56
2021/10/07 11:18:32;;;;;;;1.05;0.35;;;;;;;11.44;33.62;101516.34;1842521;75;20866;-56
2021/10/07 11:21:02;;;;;;;0.85;0.40;;;;;;;11.45;33.67;101517.23;1838029;77;20934;-55
2021/10/07 11:23:31;;;;;;;2.58;0.80;;;;;;;11.47;33.91;101518.98;1841948;76;20906;-57
2021/10/07 11:25:57;;;;;;;10.30;0.95;;;;;;;11.51;33.15;101518.42;1839067;76;21090;-56
2021/10/07 11:28:33;;;;;;;15.75;7.47;;;;;;;11.52;33.42;101517.05;1843026;75;20941;-57
2021/10/07 11:31:15;;;;;;;9.58;2.80;;;;;;;11.56;33.76;101513.83;1843354;76;21342;-56
2021/10/07 11:33:49;;;;;;;2.83;0.40;;;;;;;11.59;33.64;101514.62;1807946;77;20936;-57
2021/10/07 11:36:18;;;;;;;0.80;0.40;;;;;;;11.62;33.66;101517.71;1810023;78;21215;-56
2021/10/07 11:38:46;;;;;;;1.02;0.30;;;;;;;11.64;33.70;101519.92;1809236;78;21714;-57
2021/10/07 11:41:14;;;;;;;5.00;0.33;;;;;;;11.65;33.46;101509.06;1808386;77;21073;-56
2021/10/07 11:43:41;;;;;;;2.37;0.30;;;;;;;11.68;33.60;101509.00;1809803;77;21172;-56
2021/10/07 11:46:16;;;;;;;11.35;0.60;;;;;;;11.70;33.22;101508.50;1776855;79;20972;-57